createdAt,value
2023-04-21T00:02:54.041Z,97.47
2023-04-21T00:10:29.490Z,98.37
2023-04-21T00:18:04.146Z,96.54
2023-04-21T00:25:39.586Z,97.57
2023-04-21T00:33:13.769Z,96.96
2023-04-21T00:40:49.167Z,95.79
2023-04-21T00:48:24.110Z,94.81
2023-04-21T00:55:59.263Z,95.43
2023-04-21T01:03:34.049Z,95.72
2023-04-21T01:11:13.947Z,96.40
2023-04-21T01:18:49.410Z,96.15
2023-04-21T01:26:24.796Z,97.66
2023-04-21T01:33:58.961Z,98.15
2023-04-21T01:41:34.360Z,98.47
2023-04-21T01:49:09.190Z,99.45
2023-04-21T01:56:44.659Z,98.74
2023-04-21T02:04:18.644Z,98.89
2023-04-21T02:11:54.030Z,97.52
2023-04-21T02:19:28.132Z,97.83
2023-04-21T02:27:04.155Z,96.49
2023-04-21T02:34:38.200Z,97.30
2023-04-21T02:42:13.654Z,96.74
2023-04-21T02:49:47.823Z,97.53
2023-04-21T02:57:23.356Z,98.17
2023-04-21T03:04:57.281Z,97.96
2023-04-21T03:12:32.726Z,96.73
2023-04-21T03:20:08.562Z,97.61
2023-04-21T03:27:44.173Z,98.38
2023-04-21T03:35:18.949Z,97.71
2023-04-21T03:42:54.610Z,98.30
2023-04-21T03:50:29.480Z,97.75
2023-04-21T03:58:04.745Z,97.58
2023-04-21T04:05:38.708Z,98.43
2023-04-21T04:13:14.643Z,98.12
2023-04-21T04:20:48.704Z,99.65
2023-04-21T04:36:15.338Z,99.55
2023-04-21T04:43:51.170Z,99.88
2023-04-21T04:51:25.709Z,98.00
2023-04-21T04:59:01.534Z,97.25
2023-04-21T05:06:35.478Z,96.27
2023-04-21T05:14:10.875Z,93.37
2023-04-21T05:21:44.851Z,92.58
2023-04-21T05:29:20.288Z,90.67
2023-04-21T05:36:54.322Z,88.45
2023-04-21T05:44:29.807Z,87.89
2023-04-21T05:59:56.513Z,83.55
2023-04-21T06:07:30.483Z,81.01
2023-04-21T06:15:06.754Z,80.18
2023-04-21T06:30:33.259Z,79.06
2023-04-21T06:38:09.462Z,76.74
2023-04-21T06:45:44.895Z,80.10
2023-04-21T07:01:12.300Z,71.28
2023-04-21T07:08:46.514Z,70.62
2023-04-21T07:16:21.902Z,67.40
2023-04-21T07:23:56.232Z,65.44
2023-04-21T07:31:31.737Z,65.21
2023-04-21T07:39:06.785Z,64.76
2023-04-21T07:46:42.174Z,61.45
2023-04-21T07:54:16.270Z,62.48
2023-04-21T08:01:52.016Z,59.27
2023-04-21T08:09:26.248Z,57.26
2023-04-21T08:17:02.167Z,57.27
2023-04-21T08:24:36.122Z,53.41
2023-04-21T08:32:11.422Z,52.29
2023-04-21T08:39:45.563Z,52.99
2023-04-21T08:47:23.378Z,49.86
2023-04-21T10:14:59.413Z,41.42
2023-04-21T10:22:34.880Z,42.58
2023-04-21T10:30:26.214Z,40.36
2023-04-21T10:38:00.863Z,40.69
2023-04-21T10:45:39.716Z,40.08
2023-04-21T10:53:14.328Z,41.54
2023-04-21T11:00:55.286Z,41.08
2023-04-21T11:08:30.435Z,40.44
2023-04-21T11:16:08.199Z,39.94
2023-04-21T11:23:43.108Z,39.40
2023-04-21T11:31:18.562Z,37.30
2023-04-21T11:38:52.405Z,39.14
2023-04-21T11:46:29.163Z,40.41
2023-04-21T11:54:03.470Z,38.57
2023-04-21T12:01:44.006Z,38.86
2023-04-21T12:09:20.241Z,38.78
2023-04-21T12:16:57.539Z,38.52
2023-04-21T12:24:35.506Z,38.89
2023-04-21T12:32:12.210Z,39.75
2023-04-21T12:39:46.157Z,38.45
2023-04-21T12:47:21.535Z,39.26
2023-04-21T12:54:55.356Z,39.04
2023-04-21T13:02:31.319Z,40.50
2023-04-21T13:10:08.560Z,37.49
2023-04-21T13:17:43.876Z,36.44
2023-04-21T13:25:18.074Z,37.65
2023-04-21T13:32:53.726Z,36.84
2023-04-21T13:40:27.893Z,36.98
2023-04-21T13:48:03.280Z,37.56
2023-04-21T13:55:37.383Z,36.86
2023-04-21T14:03:14.137Z,37.96
2023-04-21T14:10:48.158Z,38.13
2023-04-21T14:18:23.637Z,37.87
2023-04-21T14:25:57.514Z,36.69
2023-04-21T14:33:33.262Z,38.08
2023-04-21T14:41:07.762Z,37.03
2023-04-21T14:48:44.678Z,37.06
2023-04-21T14:56:19.354Z,36.59
2023-04-21T15:03:57.573Z,36.64
2023-04-21T15:11:31.759Z,37.46
2023-04-21T15:19:07.017Z,37.87
2023-04-21T15:26:40.904Z,32.00
2023-04-21T15:34:16.307Z,32.01
2023-04-21T15:41:50.129Z,31.98
2023-04-21T15:49:26.141Z,31.82
2023-04-21T15:57:00.969Z,31.74
2023-04-21T16:04:36.977Z,31.86
2023-04-21T16:12:11.381Z,32.27
2023-04-21T16:19:46.581Z,31.99
2023-04-21T16:27:20.820Z,31.88
2023-04-21T16:34:56.162Z,32.07
2023-04-21T16:42:29.997Z,32.62
2023-04-21T16:50:06.115Z,32.03
2023-04-21T16:57:40.109Z,32.37
2023-04-21T17:05:16.604Z,32.98
2023-04-21T17:12:50.449Z,32.77
2023-04-21T17:20:26.150Z,33.19
2023-04-21T17:28:01.026Z,32.84
2023-04-21T17:35:36.245Z,32.89
2023-04-21T17:43:10.128Z,33.32
2023-04-21T17:50:45.523Z,33.49
2023-04-21T17:58:19.501Z,33.59
2023-04-21T18:05:55.071Z,33.71
2023-04-21T18:13:29.301Z,33.91
2023-04-21T18:21:05.134Z,33.80
2023-04-21T18:28:39.253Z,33.97
2023-04-21T18:36:14.800Z,34.45
2023-04-21T18:43:48.812Z,34.38
2023-04-21T18:51:24.386Z,34.81
2023-04-21T18:58:58.417Z,35.00
2023-04-21T19:06:34.943Z,34.89
2023-04-21T19:14:09.104Z,35.10
2023-04-21T19:21:47.768Z,35.35
2023-04-21T19:29:21.725Z,35.36
2023-04-21T19:36:57.229Z,35.63
2023-04-21T19:44:31.485Z,35.84
2023-04-21T19:52:07.849Z,35.84
2023-04-21T19:59:41.707Z,36.30
2023-04-21T20:07:17.604Z,36.45
2023-04-21T20:14:55.317Z,36.66
2023-04-21T20:22:31.233Z,37.01
2023-04-21T20:30:07.622Z,37.32
2023-04-21T20:37:44.549Z,37.79
2023-04-21T20:45:18.789Z,38.21
2023-04-21T20:52:54.731Z,38.34
2023-04-21T21:00:30.781Z,38.96
2023-04-21T21:08:08.455Z,39.23
2023-04-21T21:15:42.242Z,39.54
2023-04-21T21:23:17.510Z,39.98
2023-04-21T21:30:51.480Z,40.15
2023-04-21T21:38:26.841Z,40.69
2023-04-21T21:46:01.149Z,40.71
2023-04-21T21:53:36.510Z,41.13
2023-04-21T22:09:04.961Z,42.08
2023-04-21T22:16:42.479Z,41.91
2023-04-21T22:24:17.886Z,42.37
2023-04-21T22:31:51.909Z,43.45
2023-04-21T22:39:29.005Z,43.23
2023-04-21T22:47:04.338Z,43.37
2023-04-21T22:54:41.145Z,43.47
2023-04-21T23:02:15.041Z,43.79
2023-04-21T23:09:50.921Z,43.98
2023-04-21T23:17:25.098Z,43.66
2023-04-21T23:25:00.668Z,44.03
2023-04-21T23:32:34.770Z,44.27
2023-04-21T23:40:12.602Z,44.41
2023-04-21T23:47:46.721Z,44.95
2023-04-21T23:55:22.272Z,44.66
